# Tabular Observed and Forecast Hydrograph Information
#
# Location: Santa Ana River - San Bernardino at E Street (SREC1)
#
# File Generation Time: 05/05/2026 at 07:24 AM PDT
# Data Interval: 1 Hour
#
# Most Recent Date & Time of Maximum Observed: 05/05/2026 at 07:00 AM PDT
# Maximum Observed Stage: 2.76 Feet
# Maximum Observed Flow: 13 cfs
#
# Earliest Date & Time of Maximum Forecast: 05/05/2026 at 12:00 PM PDT
# Maximum Forecast Stage: 3.19 Feet
# Maximum Forecast Flow: 74 cfs
#
# OBSERVED
#
# Date & Time (Local) Stage (Feet) Flow (cfs) Trend Observed Status
# ---------------------------------------------------------------------------------
04/30/2026 07 AM PDT 2.58 4 Not Applicable
04/30/2026 08 AM PDT 2.67 8 + Not Applicable
04/30/2026 09 AM PDT 2.68 8 + Not Applicable
04/30/2026 10 AM PDT 2.69 9 + Not Applicable
04/30/2026 11 AM PDT 2.69 9 0 Not Applicable
04/30/2026 12 PM PDT 2.69 9 0 Not Applicable
04/30/2026 01 PM PDT 2.68 8 - Not Applicable
04/30/2026 02 PM PDT 2.68 8 0 Not Applicable
04/30/2026 03 PM PDT 2.67 8 - Not Applicable
04/30/2026 04 PM PDT 2.71 10 + Not Applicable
04/30/2026 05 PM PDT 2.70 9 - Not Applicable
04/30/2026 06 PM PDT 2.70 9 0 Not Applicable
04/30/2026 07 PM PDT 2.68 8 - Not Applicable
04/30/2026 08 PM PDT 2.68 8 0 Not Applicable
04/30/2026 09 PM PDT 2.68 8 0 Not Applicable
04/30/2026 10 PM PDT 2.64 6 - Not Applicable
04/30/2026 11 PM PDT 2.61 5 - Not Applicable
05/01/2026 12 AM PDT 2.60 5 - Not Applicable
05/01/2026 01 AM PDT 2.62 5 + Not Applicable
05/01/2026 02 AM PDT 2.59 4 - Not Applicable
05/01/2026 03 AM PDT 2.56 3 - Not Applicable
05/01/2026 04 AM PDT 2.60 5 + Not Applicable
05/01/2026 05 AM PDT 2.60 5 0 Not Applicable
05/01/2026 06 AM PDT 2.62 5 + Not Applicable
05/01/2026 07 AM PDT 2.64 6 + Not Applicable
05/01/2026 08 AM PDT 2.65 7 + Not Applicable
05/01/2026 09 AM PDT 2.67 8 + Not Applicable
05/01/2026 10 AM PDT 2.67 8 0 Not Applicable
05/01/2026 11 AM PDT 2.69 9 + Not Applicable
05/01/2026 12 PM PDT 2.69 9 0 Not Applicable
05/01/2026 01 PM PDT 2.68 8 - Not Applicable
05/01/2026 02 PM PDT 2.67 8 - Not Applicable
05/01/2026 03 PM PDT 2.70 9 + Not Applicable
05/01/2026 04 PM PDT 2.70 9 0 Not Applicable
05/01/2026 05 PM PDT 2.70 9 0 Not Applicable
05/01/2026 06 PM PDT 2.70 9 0 Not Applicable
05/01/2026 07 PM PDT 2.69 9 - Not Applicable
05/01/2026 08 PM PDT 2.69 9 0 Not Applicable
05/01/2026 09 PM PDT 2.66 7 - Not Applicable
05/01/2026 10 PM PDT 2.65 7 - Not Applicable
05/01/2026 11 PM PDT 2.60 5 - Not Applicable
05/02/2026 12 AM PDT 2.61 5 + Not Applicable
05/02/2026 01 AM PDT 2.60 5 - Not Applicable
05/02/2026 02 AM PDT 2.61 5 + Not Applicable
05/02/2026 03 AM PDT 2.60 5 - Not Applicable
05/02/2026 04 AM PDT 2.56 3 - Not Applicable
05/02/2026 05 AM PDT 2.56 3 0 Not Applicable
05/02/2026 06 AM PDT 2.60 5 + Not Applicable
05/02/2026 07 AM PDT 2.62 5 + Not Applicable
05/02/2026 08 AM PDT 2.67 8 + Not Applicable
05/02/2026 09 AM PDT 2.69 9 + Not Applicable
05/02/2026 10 AM PDT 2.71 10 + Not Applicable
05/02/2026 11 AM PDT 2.75 12 + Not Applicable
05/02/2026 12 PM PDT 2.74 11 - Not Applicable
05/02/2026 01 PM PDT 2.69 9 - Not Applicable
05/02/2026 02 PM PDT 2.71 10 + Not Applicable
05/02/2026 03 PM PDT 2.70 9 - Not Applicable
05/02/2026 04 PM PDT 2.70 9 0 Not Applicable
05/02/2026 05 PM PDT 2.69 9 - Not Applicable
05/02/2026 06 PM PDT 2.63 6 - Not Applicable
05/02/2026 07 PM PDT 2.58 4 - Not Applicable
05/02/2026 08 PM PDT 2.59 4 + Not Applicable
05/02/2026 09 PM PDT 2.57 4 - Not Applicable
05/02/2026 10 PM PDT 2.55 3 - Not Applicable
05/02/2026 11 PM PDT 2.55 3 0 Not Applicable
05/03/2026 12 AM PDT 2.54 3 - Not Applicable
05/03/2026 01 AM PDT 2.54 3 0 Not Applicable
05/03/2026 02 AM PDT 2.56 3 + Not Applicable
05/03/2026 03 AM PDT 2.56 3 0 Not Applicable
05/03/2026 04 AM PDT 2.55 3 - Not Applicable
05/03/2026 05 AM PDT 2.57 4 + Not Applicable
05/03/2026 06 AM PDT 2.64 6 + Not Applicable
05/03/2026 07 AM PDT 2.63 6 - Not Applicable
05/03/2026 08 AM PDT 2.64 6 + Not Applicable
05/03/2026 09 AM PDT 2.62 5 - Not Applicable
05/03/2026 10 AM PDT 2.66 7 + Not Applicable
05/03/2026 11 AM PDT 2.67 8 + Not Applicable
05/03/2026 12 PM PDT 2.65 7 - Not Applicable
05/03/2026 01 PM PDT 2.68 8 + Not Applicable
05/03/2026 02 PM PDT 2.70 9 + Not Applicable
05/03/2026 03 PM PDT 2.69 9 - Not Applicable
05/03/2026 04 PM PDT 2.68 8 - Not Applicable
05/03/2026 05 PM PDT 2.68 8 0 Not Applicable
05/03/2026 06 PM PDT 2.67 8 - Not Applicable
05/03/2026 07 PM PDT 2.67 8 0 Not Applicable
05/03/2026 08 PM PDT 2.65 7 - Not Applicable
05/03/2026 09 PM PDT 2.64 6 - Not Applicable
05/03/2026 10 PM PDT 2.64 6 0 Not Applicable
05/03/2026 11 PM PDT 2.62 5 - Not Applicable
05/04/2026 12 AM PDT 2.63 6 + Not Applicable
05/04/2026 01 AM PDT 2.61 5 - Not Applicable
05/04/2026 02 AM PDT 2.62 5 + Not Applicable
05/04/2026 03 AM PDT 2.60 5 - Not Applicable
05/04/2026 04 AM PDT 2.61 5 + Not Applicable
05/04/2026 05 AM PDT 2.60 5 - Not Applicable
05/04/2026 06 AM PDT 2.60 5 0 Not Applicable
05/04/2026 07 AM PDT 2.62 5 + Not Applicable
05/04/2026 08 AM PDT 2.65 7 + Not Applicable
05/04/2026 09 AM PDT 2.60 5 - Not Applicable
05/04/2026 10 AM PDT 2.56 3 - Not Applicable
05/04/2026 11 AM PDT 2.58 4 + Not Applicable
05/04/2026 12 PM PDT 2.55 3 - Not Applicable
05/04/2026 01 PM PDT 2.52 2 - Not Applicable
05/04/2026 02 PM PDT 2.53 3 + Not Applicable
05/04/2026 03 PM PDT 2.52 2 - Not Applicable
05/04/2026 04 PM PDT 2.52 2 0 Not Applicable
05/04/2026 05 PM PDT 2.52 2 0 Not Applicable
05/04/2026 06 PM PDT 2.63 6 + Not Applicable
05/04/2026 07 PM PDT 2.65 7 + Not Applicable
05/04/2026 08 PM PDT 2.65 7 0 Not Applicable
05/04/2026 09 PM PDT 2.63 6 - Not Applicable
05/04/2026 10 PM PDT 2.63 6 0 Not Applicable
05/04/2026 11 PM PDT 2.62 5 - Not Applicable
05/05/2026 12 AM PDT 2.61 5 - Not Applicable
05/05/2026 01 AM PDT 2.59 4 - Not Applicable
05/05/2026 02 AM PDT 2.61 5 + Not Applicable
05/05/2026 03 AM PDT 2.60 5 - Not Applicable
05/05/2026 04 AM PDT 2.61 5 + Not Applicable
05/05/2026 05 AM PDT 2.60 5 - Not Applicable
05/05/2026 06 AM PDT 2.59 4 - Not Applicable
05/05/2026 07 AM PDT 2.76 13 + Not Applicable
#
# FORECAST
#
# Date & Time (Local) Stage (Feet) Flow (cfs) Trend Forecast Status
# ---------------------------------------------------------------------------------
05/05/2026 08 AM PDT 3.02 41 Not Applicable
05/05/2026 09 AM PDT 3.07 49 + Not Applicable
05/05/2026 10 AM PDT 3.12 59 + Not Applicable
05/05/2026 11 AM PDT 3.17 69 + Not Applicable
05/05/2026 12 PM PDT 3.19 74 + Not Applicable
05/05/2026 01 PM PDT 3.18 72 - Not Applicable
05/05/2026 02 PM PDT 3.09 53 - Not Applicable
05/05/2026 03 PM PDT 3.06 48 - Not Applicable
05/05/2026 04 PM PDT 3.04 44 - Not Applicable
05/05/2026 05 PM PDT 3.02 41 - Not Applicable
05/05/2026 06 PM PDT 2.99 37 - Not Applicable
05/05/2026 07 PM PDT 2.96 32 - Not Applicable
05/05/2026 08 PM PDT 2.88 23 - Not Applicable
05/05/2026 09 PM PDT 2.84 19 - Not Applicable
05/05/2026 10 PM PDT 2.79 15 - Not Applicable
05/05/2026 11 PM PDT 2.74 11 - Not Applicable
05/06/2026 12 AM PDT 2.67 8 - Not Applicable
05/06/2026 01 AM PDT 2.53 3 - Not Applicable
05/06/2026 02 AM PDT 2.22 0 - Not Applicable
05/06/2026 03 AM PDT 2.22 0 0 Not Applicable
05/06/2026 04 AM PDT 2.22 0 0 Not Applicable
05/06/2026 05 AM PDT 2.22 0 0 Not Applicable
05/06/2026 06 AM PDT 2.22 0 0 Not Applicable
05/06/2026 07 AM PDT 2.22 0 0 Not Applicable
05/06/2026 08 AM PDT 2.22 0 0 Not Applicable
05/06/2026 09 AM PDT 2.22 0 0 Not Applicable
05/06/2026 10 AM PDT 2.22 0 0 Not Applicable
05/06/2026 11 AM PDT 2.22 0 0 Not Applicable
05/06/2026 12 PM PDT 2.22 0 0 Not Applicable
05/06/2026 01 PM PDT 2.22 0 0 Not Applicable
05/06/2026 02 PM PDT 2.22 0 0 Not Applicable
05/06/2026 03 PM PDT 2.22 0 0 Not Applicable
05/06/2026 04 PM PDT 2.22 0 0 Not Applicable
05/06/2026 05 PM PDT 2.22 0 0 Not Applicable
05/06/2026 06 PM PDT 2.22 0 0 Not Applicable
05/06/2026 07 PM PDT 2.22 0 0 Not Applicable
05/06/2026 08 PM PDT 2.22 0 0 Not Applicable
05/06/2026 09 PM PDT 2.22 0 0 Not Applicable
05/06/2026 10 PM PDT 2.22 0 0 Not Applicable
05/06/2026 11 PM PDT 2.22 0 0 Not Applicable
05/07/2026 12 AM PDT 2.22 0 0 Not Applicable
05/07/2026 01 AM PDT 2.22 0 0 Not Applicable
05/07/2026 02 AM PDT 2.22 0 0 Not Applicable
05/07/2026 03 AM PDT 2.22 0 0 Not Applicable
05/07/2026 04 AM PDT 2.22 0 0 Not Applicable
05/07/2026 05 AM PDT 2.22 0 0 Not Applicable
05/07/2026 06 AM PDT 2.22 0 0 Not Applicable
05/07/2026 07 AM PDT 2.22 0 0 Not Applicable
05/07/2026 08 AM PDT 2.22 0 0 Not Applicable
05/07/2026 09 AM PDT 2.22 0 0 Not Applicable
05/07/2026 10 AM PDT 2.22 0 0 Not Applicable
05/07/2026 11 AM PDT 2.22 0 0 Not Applicable
05/07/2026 12 PM PDT 2.22 0 0 Not Applicable
05/07/2026 01 PM PDT 2.22 0 0 Not Applicable
05/07/2026 02 PM PDT 2.22 0 0 Not Applicable
05/07/2026 03 PM PDT 2.22 0 0 Not Applicable
05/07/2026 04 PM PDT 2.22 0 0 Not Applicable
05/07/2026 05 PM PDT 2.22 0 0 Not Applicable
05/07/2026 06 PM PDT 2.22 0 0 Not Applicable
05/07/2026 07 PM PDT 2.22 0 0 Not Applicable
05/07/2026 08 PM PDT 2.22 0 0 Not Applicable
05/07/2026 09 PM PDT 2.22 0 0 Not Applicable
05/07/2026 10 PM PDT 2.22 0 0 Not Applicable
05/07/2026 11 PM PDT 2.22 0 0 Not Applicable
05/08/2026 12 AM PDT 2.22 0 0 Not Applicable
05/08/2026 01 AM PDT 2.22 0 0 Not Applicable
05/08/2026 02 AM PDT 2.22 0 0 Not Applicable
05/08/2026 03 AM PDT 2.22 0 0 Not Applicable
05/08/2026 04 AM PDT 2.22 0 0 Not Applicable
05/08/2026 05 AM PDT 2.22 0 0 Not Applicable
05/08/2026 06 AM PDT 2.22 0 0 Not Applicable
05/08/2026 07 AM PDT 2.22 0 0 Not Applicable
05/08/2026 08 AM PDT 2.22 0 0 Not Applicable
05/08/2026 09 AM PDT 2.22 0 0 Not Applicable
05/08/2026 10 AM PDT 2.22 0 0 Not Applicable
05/08/2026 11 AM PDT 2.22 0 0 Not Applicable
05/08/2026 12 PM PDT 2.22 0 0 Not Applicable
05/08/2026 01 PM PDT 2.22 0 0 Not Applicable
05/08/2026 02 PM PDT 2.22 0 0 Not Applicable
05/08/2026 03 PM PDT 2.22 0 0 Not Applicable
05/08/2026 04 PM PDT 2.22 0 0 Not Applicable
05/08/2026 05 PM PDT 2.22 0 0 Not Applicable
05/08/2026 06 PM PDT 2.22 0 0 Not Applicable
05/08/2026 07 PM PDT 2.22 0 0 Not Applicable
05/08/2026 08 PM PDT 2.22 0 0 Not Applicable
05/08/2026 09 PM PDT 2.22 0 0 Not Applicable
05/08/2026 10 PM PDT 2.22 0 0 Not Applicable
05/08/2026 11 PM PDT 2.22 0 0 Not Applicable
05/09/2026 12 AM PDT 2.22 0 0 Not Applicable
05/09/2026 01 AM PDT 2.22 0 0 Not Applicable
05/09/2026 02 AM PDT 2.22 0 0 Not Applicable
05/09/2026 03 AM PDT 2.22 0 0 Not Applicable
05/09/2026 04 AM PDT 2.22 0 0 Not Applicable
05/09/2026 05 AM PDT 2.22 0 0 Not Applicable
05/09/2026 06 AM PDT 2.22 0 0 Not Applicable
05/09/2026 07 AM PDT 2.22 0 0 Not Applicable
05/09/2026 08 AM PDT 2.22 0 0 Not Applicable
05/09/2026 09 AM PDT 2.22 0 0 Not Applicable
05/09/2026 10 AM PDT 2.22 0 0 Not Applicable
05/09/2026 11 AM PDT 2.22 0 0 Not Applicable
05/09/2026 12 PM PDT 2.22 0 0 Not Applicable
05/09/2026 01 PM PDT 2.22 0 0 Not Applicable
05/09/2026 02 PM PDT 2.22 0 0 Not Applicable
05/09/2026 03 PM PDT 2.22 0 0 Not Applicable
05/09/2026 04 PM PDT 2.22 0 0 Not Applicable
05/09/2026 05 PM PDT 2.22 0 0 Not Applicable
05/09/2026 06 PM PDT 2.22 0 0 Not Applicable
05/09/2026 07 PM PDT 2.22 0 0 Not Applicable
05/09/2026 08 PM PDT 2.22 0 0 Not Applicable
05/09/2026 09 PM PDT 2.22 0 0 Not Applicable
05/09/2026 10 PM PDT 2.22 0 0 Not Applicable
05/09/2026 11 PM PDT 2.22 0 0 Not Applicable
05/10/2026 12 AM PDT 2.22 0 0 Not Applicable
05/10/2026 01 AM PDT 2.22 0 0 Not Applicable
05/10/2026 02 AM PDT 2.22 0 0 Not Applicable
05/10/2026 03 AM PDT 2.22 0 0 Not Applicable
05/10/2026 04 AM PDT 2.22 0 0 Not Applicable
05/10/2026 05 AM PDT 2.22 0 0 Not Applicable
#
# NOTE 1: Stages are rounded to the nearest hundredth (.01) of a foot.
# NOTE 2: Flows are rounded to the nearest (1) cfs.
# NOTE 3: Trends are determined using hourly change in unrounded stage and flow.
# NOTE 4: Maximum Values are determined using unrounded stage and flow.
|